EZY11BL LICJ-LGAV
Flight info
| Callsign | EZY11BL |
|---|---|
| Flight time | 1h 26m |
| Altitude | 38000 |
| Route | PAL DCT PELEN DCT RUTOM/N0447F390 DCT ARA UY144 NEMES |
| Aircraft | B736/M-SDE2E3FGHIRWXY/LB1 |
Departure
| Time | 2026-05-07 10:07 |
|---|---|
| Airport | Falcone–Borsellino Airport (LICJ) |
Arrival
| Time | 2026-05-07 11:34 |
|---|---|
| Airport | Athens Eleftherios Venizelos International Airport (LGAV) |
| Time | Latitude | Longitude | Altitude | Speed | Heading |
|---|---|---|---|---|---|
| 2026-05-07 10:01 | 38.18507 | 13.10723 | 64 ft | 0 kts | 250° |
| 2026-05-07 10:02 | 38.18505 | 13.10713 | 61 ft | 5 kts | 249° |
| 2026-05-07 10:02 | 38.18480 | 13.10642 | 62 ft | 11 kts | 247° |
| 2026-05-07 10:02 | 38.18449 | 13.10549 | 59 ft | 11 kts | 242° |
| 2026-05-07 10:03 | 38.18383 | 13.10498 | 60 ft | 12 kts | 200° |
| 2026-05-07 10:03 | 38.18317 | 13.10437 | 59 ft | 12 kts | 246° |
| 2026-05-07 10:03 | 38.18265 | 13.10365 | 63 ft | 12 kts | 179° |
| 2026-05-07 10:03 | 38.18198 | 13.10316 | 62 ft | 13 kts | 245° |
| 2026-05-07 10:04 | 38.18159 | 13.10201 | 59 ft | 16 kts | 247° |
| 2026-05-07 10:04 | 38.18110 | 13.10057 | 60 ft | 19 kts | 246° |
| 2026-05-07 10:04 | 38.18053 | 13.09888 | 59 ft | 22 kts | 247° |
| 2026-05-07 10:04 | 38.17989 | 13.09698 | 65 ft | 24 kts | 247° |
| 2026-05-07 10:05 | 38.17923 | 13.09499 | 60 ft | 24 kts | 246° |
| 2026-05-07 10:05 | 38.17859 | 13.09310 | 70 ft | 23 kts | 247° |
| 2026-05-07 10:05 | 38.17797 | 13.09125 | 62 ft | 24 kts | 246° |
| 2026-05-07 10:05 | 38.17721 | 13.08938 | 65 ft | 23 kts | 223° |
| 2026-05-07 10:06 | 38.17637 | 13.08857 | 61 ft | 23 kts | 216° |
| 2026-05-07 10:06 | 38.17502 | 13.08760 | 65 ft | 11 kts | 154° |
| 2026-05-07 10:06 | 38.17489 | 13.08819 | 68 ft | 6 kts | 73° |
| 2026-05-07 10:06 | 38.17549 | 13.08998 | 68 ft | 57 kts | 66° |
| 2026-05-07 10:07 | 38.17808 | 13.09770 | 70 ft | 129 kts | 66° |
| 2026-05-07 10:07 | 38.18065 | 13.10542 | 319 ft | 145 kts | 66° |
| 2026-05-07 10:07 | 38.18458 | 13.11700 | 1202 ft | 144 kts | 68° |
| 2026-05-07 10:07 | 38.18868 | 13.12937 | 2056 ft | 159 kts | 66° |
| 2026-05-07 10:08 | 38.19380 | 13.14370 | 2417 ft | 193 kts | 69° |
| 2026-05-07 10:08 | 38.19911 | 13.15958 | 3061 ft | 201 kts | 69° |
| 2026-05-07 10:08 | 38.20475 | 13.17632 | 3733 ft | 206 kts | 69° |
| 2026-05-07 10:08 | 38.21050 | 13.19284 | 4484 ft | 207 kts | 64° |
| 2026-05-07 10:09 | 38.21869 | 13.20819 | 5233 ft | 213 kts | 53° |
| 2026-05-07 10:09 | 38.22810 | 13.22266 | 6176 ft | 212 kts | 52° |
| 2026-05-07 10:09 | 38.23771 | 13.23711 | 6988 ft | 217 kts | 52° |
| 2026-05-07 10:09 | 38.24761 | 13.25204 | 7723 ft | 224 kts | 52° |
| 2026-05-07 10:10 | 38.25776 | 13.26742 | 8514 ft | 229 kts | 52° |
| 2026-05-07 10:10 | 38.26817 | 13.28321 | 9292 ft | 236 kts | 52° |
| 2026-05-07 10:10 | 38.27884 | 13.29945 | 10049 ft | 241 kts | 52° |
| 2026-05-07 10:10 | 38.28922 | 13.31612 | 10745 ft | 245 kts | 63° |
| 2026-05-07 10:11 | 38.29356 | 13.33674 | 11447 ft | 243 kts | 96° |
| 2026-05-07 10:11 | 38.28863 | 13.35691 | 12161 ft | 240 kts | 127° |
| 2026-05-07 10:11 | 38.27777 | 13.37306 | 12913 ft | 242 kts | 139° |
| 2026-05-07 10:11 | 38.26441 | 13.38594 | 13616 ft | 242 kts | 163° |
| 2026-05-07 10:12 | 38.24815 | 13.39042 | 14349 ft | 239 kts | 180° |
| 2026-05-07 10:12 | 38.23155 | 13.38967 | 15026 ft | 242 kts | 192° |
| 2026-05-07 10:12 | 38.21451 | 13.38456 | 15416 ft | 259 kts | 203° |
| 2026-05-07 10:12 | 38.19877 | 13.37332 | 16088 ft | 261 kts | 222° |
| 2026-05-07 10:13 | 38.18527 | 13.35782 | 16928 ft | 262 kts | 225° |
| 2026-05-07 10:13 | 38.17195 | 13.34199 | 17770 ft | 264 kts | 225° |
| 2026-05-07 10:13 | 38.15823 | 13.32629 | 18541 ft | 268 kts | 217° |
| 2026-05-07 10:13 | 38.14130 | 13.31574 | 19302 ft | 274 kts | 203° |
| 2026-05-07 10:14 | 38.12282 | 13.30984 | 20051 ft | 280 kts | 195° |
| 2026-05-07 10:14 | 38.10312 | 13.30779 | 20756 ft | 289 kts | 186° |
| 2026-05-07 10:14 | 38.08281 | 13.31068 | 21426 ft | 300 kts | 173° |
| 2026-05-07 10:14 | 38.06277 | 13.32007 | 22049 ft | 318 kts | 159° |
| 2026-05-07 10:15 | 38.04389 | 13.33707 | 22200 ft | 353 kts | 141° |
| 2026-05-07 10:15 | 38.02830 | 13.36301 | 22374 ft | 386 kts | 122° |
| 2026-05-07 10:15 | 38.01919 | 13.39638 | 22527 ft | 416 kts | 102° |
| 2026-05-07 10:15 | 38.01887 | 13.43406 | 22652 ft | 441 kts | 81° |
| 2026-05-07 10:16 | 38.02934 | 13.47124 | 22803 ft | 457 kts | 58° |
| 2026-05-07 10:16 | 38.04849 | 13.50382 | 23126 ft | 465 kts | 46° |
| 2026-05-07 10:16 | 38.07059 | 13.53404 | 23596 ft | 470 kts | 43° |
| 2026-05-07 10:16 | 38.09337 | 13.56399 | 24099 ft | 473 kts | 43° |
| 2026-05-07 10:17 | 38.11561 | 13.59521 | 24586 ft | 479 kts | 48° |
| 2026-05-07 10:17 | 38.13506 | 13.63005 | 25037 ft | 486 kts | 57° |
| 2026-05-07 10:17 | 38.15072 | 13.66839 | 25497 ft | 493 kts | 64° |
| 2026-05-07 10:17 | 38.16321 | 13.70913 | 25936 ft | 498 kts | 70° |
| 2026-05-07 10:18 | 38.17360 | 13.75079 | 26345 ft | 503 kts | 72° |
| 2026-05-07 10:18 | 38.18320 | 13.79377 | 26754 ft | 508 kts | 73° |
| 2026-05-07 10:18 | 38.19262 | 13.83721 | 27155 ft | 512 kts | 73° |
| 2026-05-07 10:18 | 38.20224 | 13.88103 | 27539 ft | 516 kts | 72° |
| 2026-05-07 10:19 | 38.21216 | 13.92502 | 27948 ft | 520 kts | 72° |
| 2026-05-07 10:19 | 38.22236 | 13.96928 | 28343 ft | 523 kts | 71° |
| 2026-05-07 10:19 | 38.23276 | 14.01384 | 28719 ft | 527 kts | 71° |
| 2026-05-07 10:19 | 38.24329 | 14.05874 | 29082 ft | 531 kts | 71° |
| 2026-05-07 10:20 | 38.25387 | 14.10391 | 29521 ft | 533 kts | 71° |
| 2026-05-07 10:20 | 38.26442 | 14.14918 | 30040 ft | 533 kts | 70° |
| 2026-05-07 10:20 | 38.27493 | 14.19443 | 30502 ft | 533 kts | 71° |
| 2026-05-07 10:20 | 38.28539 | 14.23963 | 30982 ft | 532 kts | 71° |
| 2026-05-07 10:21 | 38.29583 | 14.28481 | 31496 ft | 531 kts | 71° |
| 2026-05-07 10:21 | 38.30621 | 14.32987 | 31987 ft | 530 kts | 71° |
| 2026-05-07 10:21 | 38.31660 | 14.37499 | 32424 ft | 530 kts | 71° |
| 2026-05-07 10:21 | 38.32695 | 14.42001 | 32838 ft | 530 kts | 71° |
| 2026-05-07 10:22 | 38.33563 | 14.46563 | 33274 ft | 531 kts | 78° |
| 2026-05-07 10:22 | 38.33992 | 14.51179 | 33745 ft | 531 kts | 84° |
| 2026-05-07 10:22 | 38.34270 | 14.55868 | 34141 ft | 530 kts | 85° |
| 2026-05-07 10:22 | 38.34499 | 14.60564 | 34479 ft | 530 kts | 86° |
| 2026-05-07 10:23 | 38.34719 | 14.65259 | 34878 ft | 528 kts | 85° |
| 2026-05-07 10:23 | 38.34944 | 14.69914 | 35309 ft | 526 kts | 85° |
| 2026-05-07 10:23 | 38.35184 | 14.74554 | 35659 ft | 525 kts | 85° |
| 2026-05-07 10:23 | 38.35435 | 14.79190 | 35962 ft | 525 kts | 85° |
| 2026-05-07 10:24 | 38.35695 | 14.83824 | 36315 ft | 524 kts | 84° |
| 2026-05-07 10:24 | 38.35956 | 14.88441 | 36712 ft | 521 kts | 84° |
| 2026-05-07 10:24 | 38.36217 | 14.93037 | 37045 ft | 520 kts | 84° |
| 2026-05-07 10:24 | 38.36476 | 14.97643 | 37326 ft | 520 kts | 84° |
| 2026-05-07 10:25 | 38.36732 | 15.02240 | 37650 ft | 519 kts | 84° |
| 2026-05-07 10:25 | 38.36984 | 15.06820 | 37970 ft | 519 kts | 84° |
| 2026-05-07 10:25 | 38.37237 | 15.11435 | 37932 ft | 525 kts | 84° |
| 2026-05-07 10:26 | 38.37736 | 15.20698 | 37957 ft | 527 kts | 84° |
| 2026-05-07 10:26 | 38.38227 | 15.29993 | 37952 ft | 524 kts | 84° |
| 2026-05-07 10:27 | 38.38709 | 15.39242 | 37962 ft | 521 kts | 84° |
| 2026-05-07 10:27 | 38.39182 | 15.48447 | 37958 ft | 519 kts | 85° |
| 2026-05-07 10:28 | 38.39646 | 15.57623 | 37966 ft | 517 kts | 85° |
| 2026-05-07 10:28 | 38.40098 | 15.66694 | 37964 ft | 516 kts | 85° |
| 2026-05-07 10:29 | 38.40547 | 15.75827 | 37986 ft | 515 kts | 85° |
| 2026-05-07 10:29 | 38.40987 | 15.84950 | 37993 ft | 515 kts | 85° |
| 2026-05-07 10:30 | 38.41634 | 15.98634 | 38011 ft | 516 kts | 85° |
| 2026-05-07 10:30 | 38.42056 | 16.07735 | 38019 ft | 516 kts | 85° |
| 2026-05-07 10:31 | 38.42473 | 16.16896 | 38036 ft | 517 kts | 85° |
| 2026-05-07 10:31 | 38.42883 | 16.26047 | 38043 ft | 517 kts | 85° |
| 2026-05-07 10:32 | 38.43285 | 16.35199 | 38048 ft | 516 kts | 85° |
| 2026-05-07 10:32 | 38.43681 | 16.44338 | 38050 ft | 516 kts | 85° |
| 2026-05-07 10:33 | 38.44065 | 16.53413 | 38056 ft | 515 kts | 85° |
| 2026-05-07 10:33 | 38.44443 | 16.62516 | 38063 ft | 513 kts | 85° |
| 2026-05-07 10:34 | 38.44814 | 16.71592 | 38065 ft | 512 kts | 85° |
| 2026-05-07 10:34 | 38.45178 | 16.80667 | 38064 ft | 511 kts | 85° |
| 2026-05-07 10:35 | 38.45533 | 16.89700 | 38063 ft | 509 kts | 85° |
| 2026-05-07 10:35 | 38.45881 | 16.98723 | 38063 ft | 508 kts | 85° |
| 2026-05-07 10:36 | 38.46221 | 17.07724 | 38067 ft | 508 kts | 86° |
| 2026-05-07 10:36 | 38.46554 | 17.16720 | 38066 ft | 507 kts | 86° |
| 2026-05-07 10:37 | 38.46877 | 17.25642 | 38069 ft | 506 kts | 86° |
| 2026-05-07 10:37 | 38.47195 | 17.34613 | 38066 ft | 506 kts | 86° |
| 2026-05-07 10:38 | 38.47507 | 17.43586 | 38072 ft | 505 kts | 86° |
| 2026-05-07 10:38 | 38.47811 | 17.52547 | 38070 ft | 504 kts | 86° |
| 2026-05-07 10:39 | 38.48107 | 17.61479 | 38070 ft | 503 kts | 86° |
| 2026-05-07 10:39 | 38.48395 | 17.70346 | 38072 ft | 503 kts | 86° |
| 2026-05-07 10:40 | 38.48677 | 17.79254 | 38075 ft | 502 kts | 86° |
| 2026-05-07 10:40 | 38.48951 | 17.88139 | 38073 ft | 501 kts | 86° |
| 2026-05-07 10:41 | 38.49219 | 17.97009 | 38078 ft | 500 kts | 86° |
| 2026-05-07 10:41 | 38.49479 | 18.05874 | 38082 ft | 499 kts | 86° |
| 2026-05-07 10:42 | 38.49733 | 18.14722 | 38084 ft | 498 kts | 86° |
| 2026-05-07 10:42 | 38.49979 | 18.23555 | 38087 ft | 497 kts | 87° |
| 2026-05-07 10:43 | 38.50218 | 18.32369 | 38088 ft | 496 kts | 87° |
| 2026-05-07 10:43 | 38.50450 | 18.41176 | 38092 ft | 496 kts | 87° |
| 2026-05-07 10:44 | 38.50675 | 18.49957 | 38091 ft | 494 kts | 87° |
| 2026-05-07 10:44 | 38.50892 | 18.58662 | 38092 ft | 492 kts | 87° |
| 2026-05-07 10:45 | 38.51102 | 18.67376 | 38093 ft | 490 kts | 88° |
| 2026-05-07 10:45 | 38.51306 | 18.76082 | 38097 ft | 488 kts | 88° |
| 2026-05-07 10:46 | 38.51501 | 18.84684 | 38093 ft | 487 kts | 88° |
| 2026-05-07 10:46 | 38.51692 | 18.93322 | 38103 ft | 485 kts | 88° |
| 2026-05-07 10:47 | 38.51662 | 19.01924 | 38093 ft | 485 kts | 97° |
| 2026-05-07 10:47 | 38.51094 | 19.06182 | 38236 ft | 487 kts | 101° |
| 2026-05-07 10:47 | 38.50471 | 19.10422 | 38596 ft | 485 kts | 101° |
| 2026-05-07 10:48 | 38.49853 | 19.14642 | 38947 ft | 482 kts | 101° |
| 2026-05-07 10:48 | 38.49246 | 19.18854 | 39104 ft | 483 kts | 101° |
| 2026-05-07 10:48 | 38.48053 | 19.27291 | 39106 ft | 486 kts | 101° |
| 2026-05-07 10:49 | 38.46874 | 19.35735 | 39096 ft | 481 kts | 101° |
| 2026-05-07 10:49 | 38.45702 | 19.44098 | 39097 ft | 477 kts | 101° |
| 2026-05-07 10:50 | 38.44533 | 19.52389 | 39108 ft | 474 kts | 101° |
| 2026-05-07 10:50 | 38.43360 | 19.60652 | 39110 ft | 473 kts | 101° |
| 2026-05-07 10:51 | 38.42180 | 19.68915 | 39114 ft | 473 kts | 101° |
| 2026-05-07 10:51 | 38.40993 | 19.77185 | 39115 ft | 475 kts | 101° |
| 2026-05-07 10:52 | 38.39802 | 19.85442 | 39114 ft | 477 kts | 101° |
| 2026-05-07 10:52 | 38.38594 | 19.93771 | 39111 ft | 479 kts | 101° |
| 2026-05-07 10:53 | 38.37372 | 20.02154 | 39114 ft | 480 kts | 101° |
| 2026-05-07 10:53 | 38.36146 | 20.10525 | 39115 ft | 481 kts | 101° |
| 2026-05-07 10:54 | 38.34919 | 20.18853 | 39113 ft | 482 kts | 101° |
| 2026-05-07 10:54 | 38.33676 | 20.27251 | 39121 ft | 482 kts | 101° |
| 2026-05-07 10:55 | 38.32431 | 20.35619 | 39120 ft | 481 kts | 101° |
| 2026-05-07 10:55 | 38.31178 | 20.43999 | 39133 ft | 481 kts | 101° |
| 2026-05-07 10:56 | 38.29921 | 20.52357 | 39126 ft | 480 kts | 101° |
| 2026-05-07 10:56 | 38.28874 | 20.59296 | 39119 ft | 479 kts | 101° |
| 2026-05-07 10:57 | 38.27613 | 20.67608 | 39122 ft | 478 kts | 101° |
| 2026-05-07 10:57 | 38.26141 | 20.77255 | 39129 ft | 477 kts | 101° |
| 2026-05-07 10:58 | 38.25078 | 20.84191 | 39124 ft | 476 kts | 101° |
| 2026-05-07 10:58 | 38.23814 | 20.92397 | 39116 ft | 476 kts | 101° |
| 2026-05-07 10:59 | 38.22537 | 21.00651 | 39119 ft | 475 kts | 101° |
| 2026-05-07 10:59 | 38.21254 | 21.08906 | 39118 ft | 475 kts | 101° |
| 2026-05-07 11:00 | 38.19965 | 21.17158 | 39128 ft | 475 kts | 101° |
| 2026-05-07 11:00 | 38.18671 | 21.25398 | 39127 ft | 475 kts | 101° |
| 2026-05-07 11:01 | 38.17372 | 21.33646 | 39136 ft | 476 kts | 101° |
| 2026-05-07 11:01 | 38.16015 | 21.41852 | 39125 ft | 478 kts | 105° |
| 2026-05-07 11:02 | 38.13475 | 21.49650 | 39136 ft | 478 kts | 117° |
| 2026-05-07 11:02 | 38.10461 | 21.57203 | 39128 ft | 480 kts | 118° |
| 2026-05-07 11:03 | 38.07449 | 21.64775 | 39123 ft | 481 kts | 117° |
| 2026-05-07 11:03 | 38.04469 | 21.72386 | 39117 ft | 481 kts | 117° |
| 2026-05-07 11:04 | 38.01498 | 21.80009 | 39116 ft | 482 kts | 117° |
| 2026-05-07 11:04 | 37.98517 | 21.87645 | 39103 ft | 483 kts | 117° |
| 2026-05-07 11:05 | 37.95552 | 21.95216 | 39117 ft | 482 kts | 117° |
| 2026-05-07 11:05 | 37.92559 | 22.02834 | 39115 ft | 484 kts | 117° |
| 2026-05-07 11:06 | 37.89559 | 22.10453 | 39112 ft | 484 kts | 117° |
| 2026-05-07 11:06 | 37.86551 | 22.18071 | 39121 ft | 484 kts | 117° |
| 2026-05-07 11:07 | 37.83535 | 22.25693 | 39130 ft | 484 kts | 117° |
| 2026-05-07 11:07 | 37.80512 | 22.33313 | 39113 ft | 484 kts | 117° |
| 2026-05-07 11:08 | 37.77505 | 22.40876 | 39131 ft | 484 kts | 117° |
| 2026-05-07 11:08 | 37.74471 | 22.48489 | 39133 ft | 485 kts | 117° |
| 2026-05-07 11:09 | 37.71432 | 22.56100 | 39125 ft | 485 kts | 117° |
| 2026-05-07 11:09 | 37.69917 | 22.59921 | 38998 ft | 490 kts | 116° |
| 2026-05-07 11:09 | 37.68471 | 22.63838 | 38741 ft | 493 kts | 114° |
| 2026-05-07 11:10 | 37.67079 | 22.67789 | 38457 ft | 491 kts | 114° |
| 2026-05-07 11:10 | 37.65710 | 22.71731 | 38179 ft | 488 kts | 114° |
| 2026-05-07 11:10 | 37.64342 | 22.75650 | 37901 ft | 488 kts | 114° |
| 2026-05-07 11:10 | 37.62964 | 22.79558 | 37633 ft | 487 kts | 114° |
| 2026-05-07 11:11 | 37.61577 | 22.83454 | 37364 ft | 487 kts | 114° |
| 2026-05-07 11:11 | 37.60183 | 22.87345 | 36852 ft | 486 kts | 114° |
| 2026-05-07 11:11 | 37.58786 | 22.91228 | 36214 ft | 485 kts | 114° |
| 2026-05-07 11:11 | 37.57394 | 22.95091 | 35474 ft | 485 kts | 114° |
| 2026-05-07 11:12 | 37.55999 | 22.98960 | 34734 ft | 485 kts | 114° |
| 2026-05-07 11:12 | 37.54599 | 23.02838 | 33950 ft | 486 kts | 114° |
| 2026-05-07 11:12 | 37.53197 | 23.06720 | 33078 ft | 487 kts | 114° |
| 2026-05-07 11:12 | 37.51796 | 23.10597 | 32243 ft | 486 kts | 114° |
| 2026-05-07 11:13 | 37.50391 | 23.14480 | 31376 ft | 487 kts | 114° |
| 2026-05-07 11:13 | 37.49005 | 23.18319 | 30460 ft | 488 kts | 112° |
| 2026-05-07 11:13 | 37.48042 | 23.22402 | 29466 ft | 486 kts | 95° |
| 2026-05-07 11:13 | 37.47956 | 23.26569 | 29096 ft | 468 kts | 84° |
| 2026-05-07 11:14 | 37.48228 | 23.30633 | 28381 ft | 463 kts | 81° |
| 2026-05-07 11:14 | 37.48587 | 23.34645 | 27704 ft | 458 kts | 80° |
| 2026-05-07 11:14 | 37.48959 | 23.38603 | 27040 ft | 453 kts | 80° |
| 2026-05-07 11:14 | 37.49315 | 23.42526 | 26391 ft | 449 kts | 80° |
| 2026-05-07 11:15 | 37.49647 | 23.46427 | 25744 ft | 446 kts | 81° |
| 2026-05-07 11:15 | 37.49932 | 23.49949 | 25167 ft | 443 kts | 81° |
| 2026-05-07 11:15 | 37.50229 | 23.53789 | 24543 ft | 439 kts | 81° |
| 2026-05-07 11:15 | 37.50517 | 23.57605 | 23924 ft | 436 kts | 81° |
| 2026-05-07 11:16 | 37.50797 | 23.61350 | 23209 ft | 434 kts | 81° |
| 2026-05-07 11:16 | 37.51076 | 23.65121 | 22535 ft | 430 kts | 82° |
| 2026-05-07 11:16 | 37.51352 | 23.68850 | 21919 ft | 425 kts | 82° |
| 2026-05-07 11:16 | 37.51624 | 23.72541 | 21294 ft | 421 kts | 82° |
| 2026-05-07 11:17 | 37.51893 | 23.76197 | 20682 ft | 417 kts | 82° |
| 2026-05-07 11:17 | 37.52158 | 23.79810 | 20301 ft | 411 kts | 82° |
| 2026-05-07 11:17 | 37.52417 | 23.83363 | 20183 ft | 406 kts | 82° |
| 2026-05-07 11:17 | 37.52673 | 23.86880 | 20058 ft | 399 kts | 82° |
| 2026-05-07 11:18 | 37.52923 | 23.90342 | 19669 ft | 395 kts | 82° |
| 2026-05-07 11:18 | 37.53174 | 23.93794 | 18850 ft | 400 kts | 82° |
| 2026-05-07 11:18 | 37.53430 | 23.97329 | 17867 ft | 408 kts | 82° |
| 2026-05-07 11:18 | 37.53686 | 24.00892 | 17148 ft | 406 kts | 82° |
| 2026-05-07 11:19 | 37.53935 | 24.04410 | 16596 ft | 400 kts | 83° |
| 2026-05-07 11:19 | 37.54180 | 24.07879 | 16044 ft | 394 kts | 83° |
| 2026-05-07 11:19 | 37.54422 | 24.11297 | 15463 ft | 390 kts | 83° |
| 2026-05-07 11:19 | 37.54660 | 24.14682 | 14907 ft | 386 kts | 83° |
| 2026-05-07 11:20 | 37.54895 | 24.18033 | 14356 ft | 382 kts | 83° |
| 2026-05-07 11:20 | 37.55177 | 24.21304 | 13792 ft | 377 kts | 76° |
| 2026-05-07 11:20 | 37.56139 | 24.24321 | 13165 ft | 369 kts | 55° |
| 2026-05-07 11:20 | 37.57836 | 24.26679 | 12602 ft | 360 kts | 36° |
| 2026-05-07 11:21 | 37.60000 | 24.28180 | 12076 ft | 352 kts | 18° |
| 2026-05-07 11:21 | 37.62365 | 24.28854 | 11520 ft | 347 kts | 2° |
| 2026-05-07 11:21 | 37.64771 | 24.28728 | 11011 ft | 343 kts | 353° |
| 2026-05-07 11:21 | 37.67112 | 24.28395 | 10724 ft | 332 kts | 352° |
| 2026-05-07 11:22 | 37.69346 | 24.28037 | 10510 ft | 313 kts | 352° |
| 2026-05-07 11:22 | 37.71432 | 24.27703 | 10360 ft | 291 kts | 352° |
| 2026-05-07 11:22 | 37.73389 | 24.27397 | 10240 ft | 278 kts | 352° |
| 2026-05-07 11:22 | 37.75274 | 24.27110 | 10114 ft | 269 kts | 352° |
| 2026-05-07 11:23 | 37.77127 | 24.26832 | 9801 ft | 268 kts | 352° |
| 2026-05-07 11:23 | 37.78969 | 24.26560 | 9478 ft | 266 kts | 352° |
| 2026-05-07 11:23 | 37.80783 | 24.26295 | 9092 ft | 267 kts | 352° |
| 2026-05-07 11:23 | 37.82629 | 24.26026 | 8763 ft | 267 kts | 352° |
| 2026-05-07 11:24 | 37.84470 | 24.25759 | 8439 ft | 266 kts | 352° |
| 2026-05-07 11:24 | 37.86304 | 24.25494 | 8126 ft | 265 kts | 352° |
| 2026-05-07 11:24 | 37.88138 | 24.25229 | 7809 ft | 264 kts | 352° |
| 2026-05-07 11:24 | 37.89960 | 24.24965 | 7500 ft | 263 kts | 352° |
| 2026-05-07 11:25 | 37.91776 | 24.24703 | 7194 ft | 262 kts | 352° |
| 2026-05-07 11:25 | 37.93586 | 24.24442 | 6894 ft | 262 kts | 352° |
| 2026-05-07 11:25 | 37.95396 | 24.24180 | 6593 ft | 261 kts | 352° |
| 2026-05-07 11:25 | 37.97201 | 24.23919 | 6277 ft | 261 kts | 352° |
| 2026-05-07 11:26 | 37.99008 | 24.23657 | 6032 ft | 264 kts | 352° |
| 2026-05-07 11:26 | 38.00842 | 24.23303 | 5636 ft | 267 kts | 344° |
| 2026-05-07 11:26 | 38.02579 | 24.22525 | 5386 ft | 262 kts | 333° |
| 2026-05-07 11:26 | 38.04156 | 24.21461 | 5270 ft | 251 kts | 328° |
| 2026-05-07 11:27 | 38.05604 | 24.20297 | 5161 ft | 242 kts | 324° |
| 2026-05-07 11:27 | 38.06955 | 24.19096 | 5047 ft | 233 kts | 322° |
| 2026-05-07 11:27 | 38.08232 | 24.17883 | 4963 ft | 225 kts | 320° |
| 2026-05-07 11:27 | 38.09424 | 24.16649 | 4870 ft | 217 kts | 317° |
| 2026-05-07 11:28 | 38.10517 | 24.15377 | 4781 ft | 209 kts | 313° |
| 2026-05-07 11:28 | 38.11409 | 24.14010 | 4591 ft | 200 kts | 294° |
| 2026-05-07 11:28 | 38.11689 | 24.12342 | 4382 ft | 191 kts | 265° |
| 2026-05-07 11:28 | 38.11259 | 24.10781 | 4166 ft | 193 kts | 228° |
| 2026-05-07 11:29 | 38.10284 | 24.09601 | 3962 ft | 197 kts | 225° |
| 2026-05-07 11:29 | 38.09285 | 24.08383 | 3741 ft | 199 kts | 222° |
| 2026-05-07 11:29 | 38.08255 | 24.07278 | 3577 ft | 188 kts | 218° |
| 2026-05-07 11:29 | 38.07240 | 24.06281 | 3352 ft | 180 kts | 217° |
| 2026-05-07 11:30 | 38.06247 | 24.05330 | 3132 ft | 178 kts | 217° |
| 2026-05-07 11:30 | 38.05251 | 24.04380 | 2893 ft | 179 kts | 217° |
| 2026-05-07 11:30 | 38.04252 | 24.03427 | 2671 ft | 181 kts | 216° |
| 2026-05-07 11:30 | 38.03238 | 24.02460 | 2424 ft | 183 kts | 216° |
| 2026-05-07 11:31 | 38.02237 | 24.01505 | 2168 ft | 174 kts | 215° |
| 2026-05-07 11:31 | 38.01302 | 24.00614 | 1962 ft | 166 kts | 214° |
| 2026-05-07 11:31 | 38.00408 | 23.99757 | 1769 ft | 156 kts | 216° |
| 2026-05-07 11:31 | 37.99553 | 23.98929 | 1566 ft | 150 kts | 216° |
| 2026-05-07 11:32 | 37.98000 | 23.97474 | 1149 ft | 133 kts | 216° |
| 2026-05-07 11:32 | 37.97276 | 23.96743 | 909 ft | 133 kts | 216° |
| 2026-05-07 11:32 | 37.96550 | 23.96056 | 863 ft | 130 kts | 216° |
| 2026-05-07 11:33 | 37.95809 | 23.95368 | 631 ft | 134 kts | 216° |
| 2026-05-07 11:33 | 37.95066 | 23.94663 | 452 ft | 134 kts | 217° |
| 2026-05-07 11:33 | 37.94336 | 23.93977 | 308 ft | 122 kts | 218° |
| 2026-05-07 11:33 | 37.93736 | 23.93395 | 292 ft | 92 kts | 218° |
| 2026-05-07 11:34 | 37.93381 | 23.93145 | 292 ft | 26 kts | 188° |
| 2026-05-07 11:34 | 37.93260 | 23.93158 | 297 ft | 9 kts | 127° |
| 2026-05-07 11:34 | 37.93243 | 23.93230 | 298 ft | 9 kts | 105° |
| 2026-05-07 11:34 | 37.93225 | 23.93317 | 299 ft | 12 kts | 79° |
| 2026-05-07 11:35 | 37.93294 | 23.93399 | 300 ft | 16 kts | 37° |
| 2026-05-07 11:35 | 37.93378 | 23.93505 | 299 ft | 12 kts | 81° |
| 2026-05-07 11:35 | 37.93349 | 23.93575 | 300 ft | 11 kts | 127° |
| 2026-05-07 11:35 | 37.93300 | 23.93658 | 300 ft | 12 kts | 127° |
| 2026-05-07 11:36 | 37.93251 | 23.93740 | 300 ft | 12 kts | 127° |
| 2026-05-07 11:36 | 37.93197 | 23.93831 | 301 ft | 14 kts | 127° |
| 2026-05-07 11:36 | 37.93130 | 23.93942 | 300 ft | 18 kts | 127° |
| 2026-05-07 11:36 | 37.93093 | 23.94036 | 300 ft | 11 kts | 79° |
| 2026-05-07 11:37 | 37.93177 | 23.94132 | 300 ft | 19 kts | 35° |
| 2026-05-07 11:37 | 37.93281 | 23.94237 | 303 ft | 17 kts | 57° |
| 2026-05-07 11:37 | 37.93275 | 23.94300 | 301 ft | 8 kts | 122° |
| 2026-05-07 11:37 | 37.93230 | 23.94362 | 301 ft | 11 kts | 162° |
| 2026-05-07 11:38 | 37.93169 | 23.94320 | 300 ft | 7 kts | 217° |
| 2026-05-07 11:38 | 37.93165 | 23.94316 | 302 ft | 0 kts | 217° |